1864 NOT_NAMED (1864011S06081)


IBTrACS version v04r00. Visit IBTrACS website for data access.
Please direct all questions to the IBTrACS Q and A forum

Storm track - Intensity - Wind Radii - Intensity Data - Source Data - All data

Summary Information

Storm ID 1864011S06081
Start Jan 11 06Z
End Jan 21 06Z
ATCF IDs
Track status Best track data.

Storm track plot

Map of storm track

Intensity plots

No Intensity information for this storm


Radial wind information

No radial wind information for this storm


Position and Intensity Table

BASIN ISO_TIME_________ NATURE LAT LON
degrees north degrees east
SI 1864-01-11 06:00:00 NR -6.40 80.90
SI 09:00:00 NR -6.49 80.70
SI 12:00:00 NR -6.59 80.50
SI 15:00:00 NR -6.68 80.30
SI 18:00:00 NR -6.77 80.11
SI 21:00:00 NR -6.86 79.92
SI 1864-01-12 00:00:00 NR -6.94 79.74
SI 03:00:00 NR -7.02 79.56
SI 06:00:00 NR -7.10 79.40
SI 09:00:00 NR -7.17 79.25
SI 12:00:00 NR -7.24 79.10
SI 15:00:00 NR -7.30 78.97
SI 18:00:00 NR -7.36 78.83
SI 21:00:00 NR -7.42 78.70
SI 1864-01-13 00:00:00 NR -7.48 78.57
SI 03:00:00 NR -7.54 78.44
SI 06:00:00 NR -7.60 78.30
SI 09:00:00 NR -7.63 78.21
SI 12:00:00 NR -7.66 78.13
SI 15:00:00 NR -7.69 78.03
SI 18:00:00 NR -7.74 77.92
SI 21:00:00 NR -7.79 77.77
SI 1864-01-14 00:00:00 NR -7.87 77.57
SI 03:00:00 NR -7.97 77.32
SI 06:00:00 NR -8.10 77.00
SI 09:00:00 NR -8.28 76.56
SI 12:00:00 NR -8.49 76.05
SI 15:00:00 NR -8.73 75.49
SI 18:00:00 NR -8.98 74.88
SI 21:00:00 NR -9.25 74.24
SI 1864-01-15 00:00:00 NR -9.53 73.58
SI 03:00:00 NR -9.82 72.93
SI 06:00:00 NR -10.10 72.30
SI 09:00:00 NR -10.38 71.70
SI 12:00:00 NR -10.65 71.10
SI 15:00:00 NR -10.93 70.51
SI 18:00:00 NR -11.21 69.94
SI 21:00:00 NR -11.48 69.40
SI 1864-01-16 00:00:00 NR -11.74 68.89
SI 03:00:00 NR -11.98 68.42
SI 06:00:00 NR -12.20 68.00
SI 09:00:00 NR -12.38 67.64
SI 12:00:00 NR -12.54 67.33
SI 15:00:00 NR -12.69 67.06
SI 18:00:00 NR -12.83 66.82
SI 21:00:00 NR -12.96 66.62
SI 1864-01-17 00:00:00 NR -13.10 66.43
SI 03:00:00 NR -13.24 66.26
SI 06:00:00 NR -13.40 66.10
SI 09:00:00 NR -13.56 65.91
SI 12:00:00 NR -13.73 65.74
SI 15:00:00 NR -13.91 65.57
SI 18:00:00 NR -14.10 65.42
SI 21:00:00 NR -14.31 65.27
SI 1864-01-18 00:00:00 NR -14.55 65.11
SI 03:00:00 NR -14.81 64.96
SI 06:00:00 NR -15.10 64.80
SI 09:00:00 NR -15.43 64.61
SI 12:00:00 NR -15.80 64.41
SI 15:00:00 NR -16.19 64.21
SI 18:00:00 NR -16.60 64.01
SI 21:00:00 NR -17.03 63.82
SI 1864-01-19 00:00:00 NR -17.45 63.63
SI 03:00:00 NR -17.88 63.46
SI 06:00:00 NR -18.30 63.30
SI 09:00:00 NR -18.73 63.15
SI 12:00:00 NR -19.16 63.02
SI 15:00:00 NR -19.59 62.90
SI 18:00:00 NR -19.99 62.79
SI 21:00:00 NR -20.38 62.70
SI 1864-01-20 00:00:00 NR -20.73 62.62
SI 03:00:00 NR -21.04 62.55
SI 06:00:00 NR -21.30 62.50
SI 09:00:00 NR -21.50 62.46
SI 12:00:00 NR -21.66 62.43
SI 15:00:00 NR -21.76 62.41
SI 18:00:00 NR -21.84 62.40
SI 21:00:00 NR -21.88 62.39
SI 1864-01-21 00:00:00 NR -21.90 62.39
SI 03:00:00 NR -21.90 62.40
SI 06:00:00 NR -21.90 62.40

Source Information

Agency Information
USA
TOKYO
CMA
HKO
NEWDELHI
REUNION WMO-Best-Tracks.txt:Line=545:xxxx864079
BOM
NADI
WELLINGTON
DS824
TD9636
TD9635
NEUMANN
MLC

All available IBTrACS Data

SEASON BASIN SUBBASIN ISO_TIME_________ NATURE LAT LON WMO AGENCY DIST2LAND LANDFALL IFLAG USA SSHS REUNION LAT REUNION LON REUNION TYPE REUNION TNUM STORM SPEED STORM DIR
Year degrees north degrees east km km 1 degrees north degrees east 1 kts degrees
1864 SI MM 1864-01-11 06:00:00 NR -6.40 80.90 1378 1378 _____O________ -1 -6.40 80.90 99 9.90 4 245
1864 SI MM 09:00:00 NR -6.49 80.70 1389 1389 _____P________ -1 -6.49 80.70 99 4 245
1864 SI MM 12:00:00 NR -6.59 80.50 1400 1400 _____P________ -1 -6.59 80.50 99 4 245
1864 SI MM 15:00:00 NR -6.68 80.30 1412 1412 _____P________ -1 -6.68 80.30 99 4 245
1864 SI MM 18:00:00 NR -6.77 80.11 1424 1424 _____P________ -1 -6.77 80.11 99 4 245
1864 SI MM 21:00:00 NR -6.86 79.92 1436 1436 _____P________ -1 -6.86 79.92 99 4 245
1864 SI MM 1864-01-12 00:00:00 NR -6.94 79.74 1437 1437 _____P________ -1 -6.94 79.74 99 4 245
1864 SI MM 03:00:00 NR -7.02 79.56 1449 1449 _____P________ -1 -7.02 79.56 99 4 245
1864 SI MM 06:00:00 NR -7.10 79.40 reunion 1462 1462 _____O________ -1 -7.10 79.40 99 9.90 3 245
1864 SI MM 09:00:00 NR -7.17 79.25 1476 1476 _____P________ -1 -7.17 79.25 99 3 245
1864 SI MM 12:00:00 NR -7.24 79.10 1477 1477 _____P________ -1 -7.24 79.10 99 3 245
1864 SI MM 15:00:00 NR -7.30 78.97 1489 1489 _____P________ -1 -7.30 78.97 99 3 245
1864 SI MM 18:00:00 NR -7.36 78.83 1503 1503 _____P________ -1 -7.36 78.83 99 3 245
1864 SI MM 21:00:00 NR -7.42 78.70 1505 1505 _____P________ -1 -7.42 78.70 99 3 246
1864 SI MM 1864-01-13 00:00:00 NR -7.48 78.57 1517 1517 _____P________ -1 -7.48 78.57 99 3 246
1864 SI MM 03:00:00 NR -7.54 78.44 1521 1521 _____P________ -1 -7.54 78.44 99 3 247
1864 SI MM 06:00:00 NR -7.60 78.30 reunion 1534 1534 _____O________ -1 -7.60 78.30 99 9.90 2 248
1864 SI MM 09:00:00 NR -7.63 78.21 1536 1536 _____P________ -1 -7.63 78.21 99 2 250
1864 SI MM 12:00:00 NR -7.66 78.13 1549 1549 _____P________ -1 -7.66 78.13 99 2 251
1864 SI MM 15:00:00 NR -7.69 78.03 1551 1551 _____P________ -1 -7.69 78.03 99 2 250
1864 SI MM 18:00:00 NR -7.74 77.92 1553 1553 _____P________ -1 -7.74 77.92 99 3 250
1864 SI MM 21:00:00 NR -7.79 77.77 1566 1566 _____P________ -1 -7.79 77.77 99 4 249
1864 SI MM 1864-01-14 00:00:00 NR -7.87 77.57 1581 1581 _____P________ -1 -7.87 77.57 99 5 248
1864 SI MM 03:00:00 NR -7.97 77.32 1600 1600 _____P________ -1 -7.97 77.32 99 6 248
1864 SI MM 06:00:00 NR -8.10 77.00 reunion 1618 1618 _____O________ -1 -8.10 77.00 99 9.90 8 247
1864 SI MM 09:00:00 NR -8.28 76.56 1651 1651 _____P________ -1 -8.28 76.56 99 10 247
1864 SI MM 12:00:00 NR -8.49 76.05 1689 1689 _____P________ -1 -8.49 76.05 99 12 247
1864 SI MM 15:00:00 NR -8.73 75.49 1731 1731 _____P________ -1 -8.73 75.49 99 13 247
1864 SI MM 18:00:00 NR -8.98 74.88 1784 1784 _____P________ -1 -8.98 74.88 99 13 247
1864 SI MM 21:00:00 NR -9.25 74.24 1843 1843 _____P________ -1 -9.25 74.24 99 14 247
1864 SI MM 1864-01-15 00:00:00 NR -9.53 73.58 1889 1889 _____P________ -1 -9.53 73.58 99 14 246
1864 SI MM 03:00:00 NR -9.82 72.93 1951 1924 _____P________ -1 -9.82 72.93 99 14 246
1864 SI MM 06:00:00 NR -10.10 72.30 reunion 1924 1851 _____O________ -1 -10.10 72.30 99 9.90 13 245
1864 SI MM 09:00:00 NR -10.38 71.70 1851 1786 _____P________ -1 -10.38 71.70 99 13 245
1864 SI MM 12:00:00 NR -10.65 71.10 1779 1713 _____P________ -1 -10.65 71.10 99 13 244
1864 SI MM 15:00:00 NR -10.93 70.51 1713 1650 _____P________ -1 -10.93 70.51 99 13 244
1864 SI MM 18:00:00 NR -11.21 69.94 1641 1578 _____P________ -1 -11.21 69.94 99 12 244
1864 SI MM 21:00:00 NR -11.48 69.40 1578 1521 _____P________ -1 -11.48 69.40 99 12 243
1864 SI MM 1864-01-16 00:00:00 NR -11.74 68.89 1521 1458 _____P________ -1 -11.74 68.89 99 11 243
1864 SI MM 03:00:00 NR -11.98 68.42 1458 1410 _____P________ -1 -11.98 68.42 99 10 242
1864 SI MM 06:00:00 NR -12.20 68.00 reunion 1410 1371 _____O________ -1 -12.20 68.00 99 9.90 9 242
1864 SI MM 09:00:00 NR -12.38 67.64 1363 1331 _____P________ -1 -12.38 67.64 99 7 243
1864 SI MM 12:00:00 NR -12.54 67.33 1331 1299 _____P________ -1 -12.54 67.33 99 6 242
1864 SI MM 15:00:00 NR -12.69 67.06 1299 1268 _____P________ -1 -12.69 67.06 99 6 240
1864 SI MM 18:00:00 NR -12.83 66.82 1268 1237 _____P________ -1 -12.83 66.82 99 5 237
1864 SI MM 21:00:00 NR -12.96 66.62 1237 1213 _____P________ -1 -12.96 66.62 99 5 234
1864 SI MM 1864-01-17 00:00:00 NR -13.10 66.43 1213 1197 _____P________ -1 -13.10 66.43 99 4 231
1864 SI MM 03:00:00 NR -13.24 66.26 1197 1166 _____P________ -1 -13.24 66.26 99 4 227
1864 SI MM 06:00:00 NR -13.40 66.10 reunion 1166 1135 _____O________ -1 -13.40 66.10 99 9.90 5 227
1864 SI MM 09:00:00 NR -13.56 65.91 1135 1112 _____P________ -1 -13.56 65.91 99 5 227
1864 SI MM 12:00:00 NR -13.73 65.74 1112 1089 _____P________ -1 -13.73 65.74 99 5 223
1864 SI MM 15:00:00 NR -13.91 65.57 1089 1058 _____P________ -1 -13.91 65.57 99 5 220
1864 SI MM 18:00:00 NR -14.10 65.42 1058 1035 _____P________ -1 -14.10 65.42 99 5 217
1864 SI MM 21:00:00 NR -14.31 65.27 1035 1004 _____P________ -1 -14.31 65.27 99 5 214
1864 SI MM 1864-01-18 00:00:00 NR -14.55 65.11 1004 975 _____P________ -1 -14.55 65.11 99 6 211
1864 SI MM 03:00:00 NR -14.81 64.96 975 937 _____P________ -1 -14.81 64.96 99 6 209
1864 SI MM 06:00:00 NR -15.10 64.80 reunion 937 900 _____O________ -1 -15.10 64.80 99 9.90 7 208
1864 SI MM 09:00:00 NR -15.43 64.61 900 856 _____P________ -1 -15.43 64.61 99 8 208
1864 SI MM 12:00:00 NR -15.80 64.41 856 813 _____P________ -1 -15.80 64.41 99 9 207
1864 SI MM 15:00:00 NR -16.19 64.21 813 771 _____P________ -1 -16.19 64.21 99 9 205
1864 SI MM 18:00:00 NR -16.60 64.01 771 730 _____P________ -1 -16.60 64.01 99 9 204
1864 SI MM 21:00:00 NR -17.03 63.82 730 690 _____P________ -1 -17.03 63.82 99 9 203
1864 SI MM 1864-01-19 00:00:00 NR -17.45 63.63 685 656 _____P________ -1 -17.45 63.63 99 9 202
1864 SI MM 03:00:00 NR -17.88 63.46 656 618 _____P________ -1 -17.88 63.46 99 9 201
1864 SI MM 06:00:00 NR -18.30 63.30 reunion 618 593 _____O________ -1 -18.30 63.30 99 9.90 9 199
1864 SI MM 09:00:00 NR -18.73 63.15 593 560 _____P________ -1 -18.73 63.15 99 9 197
1864 SI MM 12:00:00 NR -19.16 63.02 557 538 _____P________ -1 -19.16 63.02 99 9 196
1864 SI MM 15:00:00 NR -19.59 62.90 538 522 _____P________ -1 -19.59 62.90 99 9 194
1864 SI MM 18:00:00 NR -19.99 62.79 522 510 _____P________ -1 -19.99 62.79 99 8 193
1864 SI MM 21:00:00 NR -20.38 62.70 510 501 _____P________ -1 -20.38 62.70 99 8 193
1864 SI MM 1864-01-20 00:00:00 NR -20.73 62.62 501 501 _____P________ -1 -20.73 62.62 99 7 192
1864 SI MM 03:00:00 NR -21.04 62.55 505 496 _____P________ -1 -21.04 62.55 99 6 191
1864 SI MM 06:00:00 NR -21.30 62.50 reunion 501 501 _____O________ -1 -21.30 62.50 99 9.90 5 191
1864 SI MM 09:00:00 NR -21.50 62.46 506 499 _____P________ -1 -21.50 62.46 99 4 191
1864 SI MM 12:00:00 NR -21.66 62.43 502 502 _____P________ -1 -21.66 62.43 99 3 187
1864 SI MM 15:00:00 NR -21.76 62.41 505 505 _____P________ -1 -21.76 62.41 99 2 195
1864 SI MM 18:00:00 NR -21.84 62.40 505 505 _____P________ -1 -21.84 62.40 99 1 0
1864 SI MM 21:00:00 NR -21.88 62.39 509 509 _____P________ -1 -21.88 62.39 99 1 0
1864 SI MM 1864-01-21 00:00:00 NR -21.90 62.39 509 509 _____P________ -1 -21.90 62.39 99 0 0
1864 SI MM 03:00:00 NR -21.90 62.40 509 509 _____P________ -1 -21.90 62.40 99 0 0
1864 SI MM 06:00:00 NR -21.90 62.40 reunion 509 _____O________ -1 -21.90 62.40 99 9.90 0 0